sensor_id;sensor_type;location;lat;lon;timestamp;P1;durP1;ratioP1;P2;durP2;ratioP2
70150;SDS011;57517;43.562;19.540;2023-07-29T00:00:56;8.18;;;4.60;;
70150;SDS011;57517;43.562;19.540;2023-07-29T00:03:22;8.32;;;5.63;;
70150;SDS011;57517;43.562;19.540;2023-07-29T00:05:48;7.07;;;5.60;;
70150;SDS011;57517;43.562;19.540;2023-07-29T00:08:14;7.88;;;5.60;;
70150;SDS011;57517;43.562;19.540;2023-07-29T00:10:40;6.38;;;4.78;;
70150;SDS011;57517;43.562;19.540;2023-07-29T00:13:05;6.90;;;5.03;;
70150;SDS011;57517;43.562;19.540;2023-07-29T00:15:32;7.38;;;5.13;;
70150;SDS011;57517;43.562;19.540;2023-07-29T00:17:57;6.50;;;4.82;;
70150;SDS011;57517;43.562;19.540;2023-07-29T00:20:23;10.23;;;4.53;;
70150;SDS011;57517;43.562;19.540;2023-07-29T00:22:49;6.28;;;4.90;;
70150;SDS011;57517;43.562;19.540;2023-07-29T00:25:18;6.88;;;5.10;;
70150;SDS011;57517;43.562;19.540;2023-07-29T00:27:43;6.93;;;4.78;;
70150;SDS011;57517;43.562;19.540;2023-07-29T00:30:09;6.75;;;4.78;;
70150;SDS011;57517;43.562;19.540;2023-07-29T00:32:35;7.95;;;5.50;;
70150;SDS011;57517;43.562;19.540;2023-07-29T00:35:02;8.35;;;5.47;;
70150;SDS011;57517;43.562;19.540;2023-07-29T00:37:28;10.05;;;6.45;;
70150;SDS011;57517;43.562;19.540;2023-07-29T00:39:55;8.57;;;5.57;;
70150;SDS011;57517;43.562;19.540;2023-07-29T00:42:21;8.75;;;5.45;;
70150;SDS011;57517;43.562;19.540;2023-07-29T00:44:46;7.70;;;5.55;;
70150;SDS011;57517;43.562;19.540;2023-07-29T00:47:12;7.10;;;5.38;;
70150;SDS011;57517;43.562;19.540;2023-07-29T00:49:41;6.88;;;4.88;;
70150;SDS011;57517;43.562;19.540;2023-07-29T00:52:10;8.40;;;5.28;;
70150;SDS011;57517;43.562;19.540;2023-07-29T00:54:40;8.70;;;5.82;;
70150;SDS011;57517;43.562;19.540;2023-07-29T00:57:06;7.57;;;5.13;;
70150;SDS011;57517;43.562;19.540;2023-07-29T00:59:35;7.10;;;5.30;;
70150;SDS011;57517;43.562;19.540;2023-07-29T01:02:01;7.18;;;5.63;;
70150;SDS011;57517;43.562;19.540;2023-07-29T01:04:27;8.10;;;5.43;;
70150;SDS011;57517;43.562;19.540;2023-07-29T01:06:58;8.38;;;5.82;;
70150;SDS011;57517;43.562;19.540;2023-07-29T01:12:31;6.90;;;5.07;;
70150;SDS011;57517;43.562;19.540;2023-07-29T01:18:08;7.38;;;5.18;;
70150;SDS011;57517;43.562;19.540;2023-07-29T01:20:40;6.97;;;4.85;;
70150;SDS011;57517;43.562;19.540;2023-07-29T01:23:07;7.57;;;5.40;;
70150;SDS011;57517;43.562;19.540;2023-07-29T01:25:33;7.90;;;5.35;;
70150;SDS011;57517;43.562;19.540;2023-07-29T01:27:59;6.65;;;5.15;;
70150;SDS011;57517;43.562;19.540;2023-07-29T01:30:29;6.85;;;4.95;;
70150;SDS011;57517;43.562;19.540;2023-07-29T01:33:18;6.22;;;5.30;;
70150;SDS011;57517;43.562;19.540;2023-07-29T01:38:51;7.97;;;5.45;;
70150;SDS011;57517;43.562;19.540;2023-07-29T01:41:18;7.32;;;5.20;;
70150;SDS011;57517;43.562;19.540;2023-07-29T01:43:44;6.68;;;4.93;;
70150;SDS011;57517;43.562;19.540;2023-07-29T01:46:11;6.50;;;5.05;;
70150;SDS011;57517;43.562;19.540;2023-07-29T01:48:40;7.30;;;5.20;;
70150;SDS011;57517;43.562;19.540;2023-07-29T01:51:06;8.63;;;5.50;;
70150;SDS011;57517;43.562;19.540;2023-07-29T01:53:33;6.85;;;4.85;;
70150;SDS011;57517;43.562;19.540;2023-07-29T01:55:58;8.05;;;5.47;;
70150;SDS011;57517;43.562;19.540;2023-07-29T01:58:24;6.65;;;4.72;;
70150;SDS011;57517;43.562;19.540;2023-07-29T02:00:50;6.97;;;4.80;;
70150;SDS011;57517;43.562;19.540;2023-07-29T02:03:16;7.10;;;4.93;;
70150;SDS011;57517;43.562;19.540;2023-07-29T02:05:42;6.95;;;4.65;;
70150;SDS011;57517;43.562;19.540;2023-07-29T02:08:09;6.72;;;5.20;;
70150;SDS011;57517;43.562;19.540;2023-07-29T02:10:35;6.88;;;5.18;;
70150;SDS011;57517;43.562;19.540;2023-07-29T02:13:01;6.70;;;5.13;;
70150;SDS011;57517;43.562;19.540;2023-07-29T02:15:27;7.28;;;5.22;;
70150;SDS011;57517;43.562;19.540;2023-07-29T02:17:53;7.85;;;6.00;;
70150;SDS011;57517;43.562;19.540;2023-07-29T02:20:19;7.05;;;5.10;;
70150;SDS011;57517;43.562;19.540;2023-07-29T02:22:44;8.55;;;5.75;;
70150;SDS011;57517;43.562;19.540;2023-07-29T02:25:10;6.80;;;5.20;;
70150;SDS011;57517;43.562;19.540;2023-07-29T02:27:36;9.23;;;5.80;;
70150;SDS011;57517;43.562;19.540;2023-07-29T02:30:02;8.70;;;5.65;;
70150;SDS011;57517;43.562;19.540;2023-07-29T02:32:28;7.35;;;5.28;;
70150;SDS011;57517;43.562;19.540;2023-07-29T02:34:54;8.90;;;5.90;;
70150;SDS011;57517;43.562;19.540;2023-07-29T02:37:20;8.60;;;6.00;;
70150;SDS011;57517;43.562;19.540;2023-07-29T02:39:46;7.00;;;5.57;;
70150;SDS011;57517;43.562;19.540;2023-07-29T02:42:11;7.40;;;5.90;;
70150;SDS011;57517;43.562;19.540;2023-07-29T02:44:37;9.60;;;5.65;;
70150;SDS011;57517;43.562;19.540;2023-07-29T02:47:05;7.90;;;6.00;;
70150;SDS011;57517;43.562;19.540;2023-07-29T02:49:31;8.20;;;5.38;;
70150;SDS011;57517;43.562;19.540;2023-07-29T02:51:57;7.80;;;5.63;;
70150;SDS011;57517;43.562;19.540;2023-07-29T02:54:23;7.20;;;5.18;;
70150;SDS011;57517;43.562;19.540;2023-07-29T02:56:49;8.82;;;5.22;;
70150;SDS011;57517;43.562;19.540;2023-07-29T02:59:15;6.55;;;5.13;;
70150;SDS011;57517;43.562;19.540;2023-07-29T03:01:41;7.05;;;5.13;;
70150;SDS011;57517;43.562;19.540;2023-07-29T03:04:07;8.13;;;5.85;;
70150;SDS011;57517;43.562;19.540;2023-07-29T03:06:33;7.30;;;5.47;;
70150;SDS011;57517;43.562;19.540;2023-07-29T03:08:59;7.43;;;4.60;;
70150;SDS011;57517;43.562;19.540;2023-07-29T03:11:25;6.60;;;5.68;;
70150;SDS011;57517;43.562;19.540;2023-07-29T03:13:50;7.53;;;5.60;;
70150;SDS011;57517;43.562;19.540;2023-07-29T03:16:17;8.75;;;5.93;;
70150;SDS011;57517;43.562;19.540;2023-07-29T03:18:43;8.52;;;5.53;;
70150;SDS011;57517;43.562;19.540;2023-07-29T03:21:10;9.77;;;5.47;;
70150;SDS011;57517;43.562;19.540;2023-07-29T03:23:36;7.15;;;4.93;;
70150;SDS011;57517;43.562;19.540;2023-07-29T03:26:03;8.23;;;4.88;;
70150;SDS011;57517;43.562;19.540;2023-07-29T03:28:35;7.95;;;5.20;;
70150;SDS011;57517;43.562;19.540;2023-07-29T03:31:06;7.22;;;4.90;;
70150;SDS011;57517;43.562;19.540;2023-07-29T03:33:32;7.82;;;5.80;;
70150;SDS011;57517;43.562;19.540;2023-07-29T03:35:58;6.53;;;5.25;;
70150;SDS011;57517;43.562;19.540;2023-07-29T03:38:24;7.47;;;5.47;;
70150;SDS011;57517;43.562;19.540;2023-07-29T03:40:50;7.18;;;5.38;;
70150;SDS011;57517;43.562;19.540;2023-07-29T03:43:16;6.63;;;4.82;;
70150;SDS011;57517;43.562;19.540;2023-07-29T03:45:42;7.47;;;5.70;;
70150;SDS011;57517;43.562;19.540;2023-07-29T03:48:08;8.77;;;5.45;;
70150;SDS011;57517;43.562;19.540;2023-07-29T03:50:34;9.27;;;5.50;;
70150;SDS011;57517;43.562;19.540;2023-07-29T03:53:02;8.40;;;5.65;;
70150;SDS011;57517;43.562;19.540;2023-07-29T03:55:31;10.45;;;5.53;;
70150;SDS011;57517;43.562;19.540;2023-07-29T03:57:57;7.43;;;5.05;;
70150;SDS011;57517;43.562;19.540;2023-07-29T04:00:24;7.65;;;5.47;;
70150;SDS011;57517;43.562;19.540;2023-07-29T04:02:51;8.18;;;5.32;;
70150;SDS011;57517;43.562;19.540;2023-07-29T04:05:17;8.95;;;5.20;;
70150;SDS011;57517;43.562;19.540;2023-07-29T04:07:43;7.45;;;5.70;;
70150;SDS011;57517;43.562;19.540;2023-07-29T04:10:09;7.28;;;5.53;;
70150;SDS011;57517;43.562;19.540;2023-07-29T04:12:35;7.03;;;5.35;;
70150;SDS011;57517;43.562;19.540;2023-07-29T04:15:01;6.40;;;4.80;;
70150;SDS011;57517;43.562;19.540;2023-07-29T04:17:27;7.07;;;5.32;;
70150;SDS011;57517;43.562;19.540;2023-07-29T04:19:53;7.63;;;5.45;;
70150;SDS011;57517;43.562;19.540;2023-07-29T04:22:19;7.18;;;5.25;;
70150;SDS011;57517;43.562;19.540;2023-07-29T04:24:44;7.85;;;5.35;;
70150;SDS011;57517;43.562;19.540;2023-07-29T04:27:11;7.57;;;5.40;;
70150;SDS011;57517;43.562;19.540;2023-07-29T04:29:37;6.93;;;5.15;;
70150;SDS011;57517;43.562;19.540;2023-07-29T04:32:03;6.55;;;5.50;;
70150;SDS011;57517;43.562;19.540;2023-07-29T04:34:29;6.72;;;5.18;;
70150;SDS011;57517;43.562;19.540;2023-07-29T04:36:55;8.00;;;5.25;;
70150;SDS011;57517;43.562;19.540;2023-07-29T04:39:21;7.53;;;5.30;;
70150;SDS011;57517;43.562;19.540;2023-07-29T04:41:47;7.43;;;5.13;;
70150;SDS011;57517;43.562;19.540;2023-07-29T04:44:13;8.25;;;6.13;;
70150;SDS011;57517;43.562;19.540;2023-07-29T04:46:38;10.82;;;6.38;;
70150;SDS011;57517;43.562;19.540;2023-07-29T04:49:04;9.75;;;5.93;;
70150;SDS011;57517;43.562;19.540;2023-07-29T04:51:30;16.50;;;6.72;;
70150;SDS011;57517;43.562;19.540;2023-07-29T04:53:59;8.07;;;5.97;;
70150;SDS011;57517;43.562;19.540;2023-07-29T04:56:25;8.05;;;6.50;;
70150;SDS011;57517;43.562;19.540;2023-07-29T04:58:51;9.00;;;6.50;;
70150;SDS011;57517;43.562;19.540;2023-07-29T05:01:19;7.97;;;6.18;;
70150;SDS011;57517;43.562;19.540;2023-07-29T05:03:45;6.57;;;5.88;;
70150;SDS011;57517;43.562;19.540;2023-07-29T05:06:12;7.75;;;6.18;;
70150;SDS011;57517;43.562;19.540;2023-07-29T05:08:38;10.32;;;7.20;;
70150;SDS011;57517;43.562;19.540;2023-07-29T05:11:03;7.47;;;6.18;;
70150;SDS011;57517;43.562;19.540;2023-07-29T05:13:29;8.13;;;6.75;;
70150;SDS011;57517;43.562;19.540;2023-07-29T05:15:55;8.77;;;7.38;;
70150;SDS011;57517;43.562;19.540;2023-07-29T05:18:21;10.65;;;6.72;;
70150;SDS011;57517;43.562;19.540;2023-07-29T05:20:47;11.25;;;7.50;;
70150;SDS011;57517;43.562;19.540;2023-07-29T05:23:13;11.60;;;8.25;;
70150;SDS011;57517;43.562;19.540;2023-07-29T05:25:38;10.45;;;7.35;;
70150;SDS011;57517;43.562;19.540;2023-07-29T05:28:04;9.90;;;7.68;;
70150;SDS011;57517;43.562;19.540;2023-07-29T05:30:31;9.02;;;7.95;;
70150;SDS011;57517;43.562;19.540;2023-07-29T05:32:59;7.90;;;6.82;;
70150;SDS011;57517;43.562;19.540;2023-07-29T05:35:33;7.32;;;6.13;;
70150;SDS011;57517;43.562;19.540;2023-07-29T05:37:59;8.25;;;6.07;;
70150;SDS011;57517;43.562;19.540;2023-07-29T05:40:25;10.85;;;7.90;;
70150;SDS011;57517;43.562;19.540;2023-07-29T05:42:51;7.90;;;6.53;;
70150;SDS011;57517;43.562;19.540;2023-07-29T05:45:16;8.40;;;6.60;;
70150;SDS011;57517;43.562;19.540;2023-07-29T05:47:42;7.80;;;7.05;;
70150;SDS011;57517;43.562;19.540;2023-07-29T05:50:08;8.70;;;7.97;;
70150;SDS011;57517;43.562;19.540;2023-07-29T05:52:34;9.75;;;8.85;;
70150;SDS011;57517;43.562;19.540;2023-07-29T05:55:00;9.32;;;8.52;;
70150;SDS011;57517;43.562;19.540;2023-07-29T05:57:26;9.95;;;9.00;;
70150;SDS011;57517;43.562;19.540;2023-07-29T05:59:52;7.75;;;6.95;;
70150;SDS011;57517;43.562;19.540;2023-07-29T06:02:18;7.28;;;6.38;;
70150;SDS011;57517;43.562;19.540;2023-07-29T06:04:44;9.38;;;8.57;;
70150;SDS011;57517;43.562;19.540;2023-07-29T06:07:10;10.68;;;9.23;;
70150;SDS011;57517;43.562;19.540;2023-07-29T06:09:36;9.80;;;8.88;;
70150;SDS011;57517;43.562;19.540;2023-07-29T06:12:01;10.18;;;9.18;;
70150;SDS011;57517;43.562;19.540;2023-07-29T06:14:28;9.82;;;9.02;;
70150;SDS011;57517;43.562;19.540;2023-07-29T06:16:53;10.18;;;9.38;;
70150;SDS011;57517;43.562;19.540;2023-07-29T06:19:20;10.60;;;9.60;;
70150;SDS011;57517;43.562;19.540;2023-07-29T06:21:46;10.45;;;9.55;;
70150;SDS011;57517;43.562;19.540;2023-07-29T06:24:12;10.07;;;9.25;;
70150;SDS011;57517;43.562;19.540;2023-07-29T06:26:38;11.10;;;10.15;;
70150;SDS011;57517;43.562;19.540;2023-07-29T06:29:03;11.77;;;10.90;;
70150;SDS011;57517;43.562;19.540;2023-07-29T06:31:29;11.05;;;10.18;;
70150;SDS011;57517;43.562;19.540;2023-07-29T06:33:55;11.75;;;10.85;;
70150;SDS011;57517;43.562;19.540;2023-07-29T06:36:21;11.35;;;10.40;;
70150;SDS011;57517;43.562;19.540;2023-07-29T06:38:47;16.42;;;15.02;;
70150;SDS011;57517;43.562;19.540;2023-07-29T06:41:13;18.23;;;16.65;;
70150;SDS011;57517;43.562;19.540;2023-07-29T06:43:39;12.82;;;11.88;;
70150;SDS011;57517;43.562;19.540;2023-07-29T06:46:05;14.52;;;11.60;;
70150;SDS011;57517;43.562;19.540;2023-07-29T06:48:30;12.15;;;11.35;;
70150;SDS011;57517;43.562;19.540;2023-07-29T06:50:56;12.73;;;11.73;;
70150;SDS011;57517;43.562;19.540;2023-07-29T06:53:26;12.35;;;11.40;;
70150;SDS011;57517;43.562;19.540;2023-07-29T06:55:52;12.50;;;11.70;;
70150;SDS011;57517;43.562;19.540;2023-07-29T06:58:18;13.23;;;12.23;;
70150;SDS011;57517;43.562;19.540;2023-07-29T07:00:44;13.63;;;12.63;;
70150;SDS011;57517;43.562;19.540;2023-07-29T07:03:10;13.43;;;12.43;;
70150;SDS011;57517;43.562;19.540;2023-07-29T07:05:35;12.07;;;11.27;;
70150;SDS011;57517;43.562;19.540;2023-07-29T07:08:01;18.85;;;17.33;;
70150;SDS011;57517;43.562;19.540;2023-07-29T07:10:27;12.55;;;11.65;;
70150;SDS011;57517;43.562;19.540;2023-07-29T07:12:53;17.33;;;15.63;;
70150;SDS011;57517;43.562;19.540;2023-07-29T07:15:18;12.45;;;11.55;;
70150;SDS011;57517;43.562;19.540;2023-07-29T07:17:44;11.02;;;10.13;;
70150;SDS011;57517;43.562;19.540;2023-07-29T07:20:10;11.65;;;10.75;;
70150;SDS011;57517;43.562;19.540;2023-07-29T07:22:36;11.27;;;10.38;;
70150;SDS011;57517;43.562;19.540;2023-07-29T07:25:02;10.82;;;10.13;;
70150;SDS011;57517;43.562;19.540;2023-07-29T07:27:28;10.07;;;9.38;;
70150;SDS011;57517;43.562;19.540;2023-07-29T07:29:54;13.15;;;11.73;;
70150;SDS011;57517;43.562;19.540;2023-07-29T07:32:20;10.02;;;9.23;;
70150;SDS011;57517;43.562;19.540;2023-07-29T07:34:45;10.65;;;9.88;;
70150;SDS011;57517;43.562;19.540;2023-07-29T07:37:11;10.90;;;10.10;;
70150;SDS011;57517;43.562;19.540;2023-07-29T07:39:37;11.13;;;10.23;;
70150;SDS011;57517;43.562;19.540;2023-07-29T07:42:03;10.32;;;9.50;;
70150;SDS011;57517;43.562;19.540;2023-07-29T07:44:29;12.43;;;11.43;;
70150;SDS011;57517;43.562;19.540;2023-07-29T07:46:55;10.65;;;9.80;;
70150;SDS011;57517;43.562;19.540;2023-07-29T07:49:20;15.75;;;14.30;;
70150;SDS011;57517;43.562;19.540;2023-07-29T07:51:47;11.77;;;10.88;;
70150;SDS011;57517;43.562;19.540;2023-07-29T07:54:13;11.38;;;10.48;;
70150;SDS011;57517;43.562;19.540;2023-07-29T07:56:38;10.45;;;9.65;;
70150;SDS011;57517;43.562;19.540;2023-07-29T07:59:04;11.00;;;10.27;;
70150;SDS011;57517;43.562;19.540;2023-07-29T08:01:37;9.35;;;8.63;;
70150;SDS011;57517;43.562;19.540;2023-07-29T08:04:04;8.07;;;7.28;;
70150;SDS011;57517;43.562;19.540;2023-07-29T08:06:31;7.15;;;5.63;;
70150;SDS011;57517;43.562;19.540;2023-07-29T08:08:57;9.27;;;7.15;;
70150;SDS011;57517;43.562;19.540;2023-07-29T08:11:24;12.98;;;9.20;;
70150;SDS011;57517;43.562;19.540;2023-07-29T08:13:50;13.55;;;6.97;;
70150;SDS011;57517;43.562;19.540;2023-07-29T08:16:16;15.07;;;10.10;;
70150;SDS011;57517;43.562;19.540;2023-07-29T08:18:42;20.67;;;13.00;;
70150;SDS011;57517;43.562;19.540;2023-07-29T08:21:09;8.88;;;6.30;;
70150;SDS011;57517;43.562;19.540;2023-07-29T08:23:35;8.50;;;6.82;;
70150;SDS011;57517;43.562;19.540;2023-07-29T08:26:03;11.15;;;8.10;;
70150;SDS011;57517;43.562;19.540;2023-07-29T08:28:34;13.32;;;9.07;;
70150;SDS011;57517;43.562;19.540;2023-07-29T08:31:01;8.05;;;6.30;;
70150;SDS011;57517;43.562;19.540;2023-07-29T08:33:28;10.15;;;7.30;;
70150;SDS011;57517;43.562;19.540;2023-07-29T08:35:53;10.60;;;7.13;;
70150;SDS011;57517;43.562;19.540;2023-07-29T08:38:20;7.82;;;5.80;;
70150;SDS011;57517;43.562;19.540;2023-07-29T08:43:23;8.57;;;6.75;;
70150;SDS011;57517;43.562;19.540;2023-07-29T08:48:23;36.30;;;20.40;;
70150;SDS011;57517;43.562;19.540;2023-07-29T08:51:02;17.05;;;11.93;;
70150;SDS011;57517;43.562;19.540;2023-07-29T08:53:29;44.42;;;26.02;;
70150;SDS011;57517;43.562;19.540;2023-07-29T08:55:56;8.15;;;6.40;;
70150;SDS011;57517;43.562;19.540;2023-07-29T08:58:23;11.48;;;8.35;;
70150;SDS011;57517;43.562;19.540;2023-07-29T09:00:50;21.20;;;13.10;;
70150;SDS011;57517;43.562;19.540;2023-07-29T09:03:16;12.52;;;8.40;;
70150;SDS011;57517;43.562;19.540;2023-07-29T09:05:44;7.88;;;6.05;;
70150;SDS011;57517;43.562;19.540;2023-07-29T09:08:10;21.13;;;11.30;;
70150;SDS011;57517;43.562;19.540;2023-07-29T09:10:36;8.57;;;6.47;;
70150;SDS011;57517;43.562;19.540;2023-07-29T09:13:03;16.33;;;10.48;;
70150;SDS011;57517;43.562;19.540;2023-07-29T09:15:31;11.48;;;6.22;;
70150;SDS011;57517;43.562;19.540;2023-07-29T09:17:57;19.17;;;12.05;;
70150;SDS011;57517;43.562;19.540;2023-07-29T09:20:24;8.40;;;6.60;;
70150;SDS011;57517;43.562;19.540;2023-07-29T09:22:52;13.10;;;9.10;;
70150;SDS011;57517;43.562;19.540;2023-07-29T09:25:23;12.88;;;8.98;;
70150;SDS011;57517;43.562;19.540;2023-07-29T09:27:50;13.25;;;9.52;;
70150;SDS011;57517;43.562;19.540;2023-07-29T09:30:16;16.35;;;10.32;;
70150;SDS011;57517;43.562;19.540;2023-07-29T09:32:42;9.40;;;5.78;;
70150;SDS011;57517;43.562;19.540;2023-07-29T09:35:11;14.60;;;10.25;;
70150;SDS011;57517;43.562;19.540;2023-07-29T09:37:38;18.75;;;13.23;;
70150;SDS011;57517;43.562;19.540;2023-07-29T09:40:04;18.88;;;13.93;;
70150;SDS011;57517;43.562;19.540;2023-07-29T09:42:32;9.38;;;7.13;;
70150;SDS011;57517;43.562;19.540;2023-07-29T09:44:58;6.95;;;5.35;;
70150;SDS011;57517;43.562;19.540;2023-07-29T09:47:24;12.45;;;7.30;;
70150;SDS011;57517;43.562;19.540;2023-07-29T09:49:51;22.38;;;13.35;;
70150;SDS011;57517;43.562;19.540;2023-07-29T09:52:22;17.05;;;10.50;;
70150;SDS011;57517;43.562;19.540;2023-07-29T09:54:50;14.85;;;8.77;;
70150;SDS011;57517;43.562;19.540;2023-07-29T09:57:17;16.98;;;15.20;;
70150;SDS011;57517;43.562;19.540;2023-07-29T09:59:53;12.88;;;11.57;;
70150;SDS011;57517;43.562;19.540;2023-07-29T10:02:22;12.82;;;11.48;;
70150;SDS011;57517;43.562;19.540;2023-07-29T10:04:53;11.88;;;8.48;;
70150;SDS011;57517;43.562;19.540;2023-07-29T10:07:21;11.82;;;7.82;;
70150;SDS011;57517;43.562;19.540;2023-07-29T10:09:47;22.27;;;14.02;;
70150;SDS011;57517;43.562;19.540;2023-07-29T10:12:15;10.50;;;7.53;;
70150;SDS011;57517;43.562;19.540;2023-07-29T10:14:42;10.02;;;7.05;;
70150;SDS011;57517;43.562;19.540;2023-07-29T10:17:08;15.75;;;9.20;;
70150;SDS011;57517;43.562;19.540;2023-07-29T10:19:35;8.90;;;6.82;;
70150;SDS011;57517;43.562;19.540;2023-07-29T10:22:01;8.40;;;6.90;;
70150;SDS011;57517;43.562;19.540;2023-07-29T10:24:30;8.15;;;7.22;;
70150;SDS011;57517;43.562;19.540;2023-07-29T10:26:58;12.65;;;9.73;;
70150;SDS011;57517;43.562;19.540;2023-07-29T10:29:26;15.75;;;11.43;;
70150;SDS011;57517;43.562;19.540;2023-07-29T10:31:57;10.93;;;7.85;;
70150;SDS011;57517;43.562;19.540;2023-07-29T10:34:26;7.75;;;6.35;;
70150;SDS011;57517;43.562;19.540;2023-07-29T10:36:52;7.10;;;5.80;;
70150;SDS011;57517;43.562;19.540;2023-07-29T10:39:19;9.02;;;5.47;;
70150;SDS011;57517;43.562;19.540;2023-07-29T10:41:58;8.07;;;6.85;;
70150;SDS011;57517;43.562;19.540;2023-07-29T10:47:21;10.38;;;6.93;;
70150;SDS011;57517;43.562;19.540;2023-07-29T10:49:52;9.45;;;5.07;;
70150;SDS011;57517;43.562;19.540;2023-07-29T10:57:50;8.18;;;5.97;;
70150;SDS011;57517;43.562;19.540;2023-07-29T11:00:18;7.22;;;5.82;;
70150;SDS011;57517;43.562;19.540;2023-07-29T11:02:58;9.35;;;6.72;;
70150;SDS011;57517;43.562;19.540;2023-07-29T11:05:26;21.02;;;14.02;;
70150;SDS011;57517;43.562;19.540;2023-07-29T11:08:15;11.25;;;7.97;;
70150;SDS011;57517;43.562;19.540;2023-07-29T11:11:02;7.60;;;5.90;;
70150;SDS011;57517;43.562;19.540;2023-07-29T11:13:30;7.90;;;6.20;;
70150;SDS011;57517;43.562;19.540;2023-07-29T11:15:58;9.65;;;6.35;;
70150;SDS011;57517;43.562;19.540;2023-07-29T11:18:27;14.75;;;8.57;;
70150;SDS011;57517;43.562;19.540;2023-07-29T11:20:55;9.52;;;5.72;;
70150;SDS011;57517;43.562;19.540;2023-07-29T11:23:40;9.05;;;6.90;;
70150;SDS011;57517;43.562;19.540;2023-07-29T11:28:37;13.23;;;9.57;;
70150;SDS011;57517;43.562;19.540;2023-07-29T11:31:05;17.45;;;11.27;;
70150;SDS011;57517;43.562;19.540;2023-07-29T11:33:31;11.48;;;7.60;;
70150;SDS011;57517;43.562;19.540;2023-07-29T11:35:57;19.13;;;11.57;;
70150;SDS011;57517;43.562;19.540;2023-07-29T11:38:23;9.88;;;6.80;;
70150;SDS011;57517;43.562;19.540;2023-07-29T11:40:59;8.68;;;5.80;;
70150;SDS011;57517;43.562;19.540;2023-07-29T11:43:25;12.20;;;8.00;;
70150;SDS011;57517;43.562;19.540;2023-07-29T11:45:52;6.20;;;5.03;;
70150;SDS011;57517;43.562;19.540;2023-07-29T11:48:25;6.68;;;5.57;;
70150;SDS011;57517;43.562;19.540;2023-07-29T11:50:56;7.55;;;5.35;;
70150;SDS011;57517;43.562;19.540;2023-07-29T11:53:25;7.45;;;5.40;;
70150;SDS011;57517;43.562;19.540;2023-07-29T11:55:53;7.35;;;5.10;;
70150;SDS011;57517;43.562;19.540;2023-07-29T11:58:20;8.00;;;4.82;;
70150;SDS011;57517;43.562;19.540;2023-07-29T12:00:46;7.88;;;4.45;;
70150;SDS011;57517;43.562;19.540;2023-07-29T12:03:12;11.85;;;8.13;;
70150;SDS011;57517;43.562;19.540;2023-07-29T12:05:40;12.23;;;9.18;;
70150;SDS011;57517;43.562;19.540;2023-07-29T12:08:06;23.00;;;13.32;;
70150;SDS011;57517;43.562;19.540;2023-07-29T12:10:34;28.33;;;17.50;;
70150;SDS011;57517;43.562;19.540;2023-07-29T12:13:01;30.50;;;18.00;;
70150;SDS011;57517;43.562;19.540;2023-07-29T12:15:29;13.60;;;9.02;;
70150;SDS011;57517;43.562;19.540;2023-07-29T12:17:55;11.07;;;5.68;;
70150;SDS011;57517;43.562;19.540;2023-07-29T12:20:22;16.73;;;10.50;;
70150;SDS011;57517;43.562;19.540;2023-07-29T12:22:55;10.05;;;7.05;;
70150;SDS011;57517;43.562;19.540;2023-07-29T12:25:22;11.70;;;8.47;;
70150;SDS011;57517;43.562;19.540;2023-07-29T12:27:48;6.75;;;4.55;;
70150;SDS011;57517;43.562;19.540;2023-07-29T12:30:14;7.78;;;5.18;;
70150;SDS011;57517;43.562;19.540;2023-07-29T12:32:44;6.10;;;4.30;;
70150;SDS011;57517;43.562;19.540;2023-07-29T12:35:10;6.28;;;4.38;;
70150;SDS011;57517;43.562;19.540;2023-07-29T12:37:36;6.00;;;3.55;;
70150;SDS011;57517;43.562;19.540;2023-07-29T12:40:04;6.32;;;4.10;;
70150;SDS011;57517;43.562;19.540;2023-07-29T12:42:30;5.80;;;3.72;;
70150;SDS011;57517;43.562;19.540;2023-07-29T12:44:55;9.00;;;7.00;;
70150;SDS011;57517;43.562;19.540;2023-07-29T12:47:21;18.10;;;11.27;;
70150;SDS011;57517;43.562;19.540;2023-07-29T12:49:47;9.40;;;6.65;;
70150;SDS011;57517;43.562;19.540;2023-07-29T12:52:13;6.00;;;4.53;;
70150;SDS011;57517;43.562;19.540;2023-07-29T12:54:38;6.13;;;3.95;;
70150;SDS011;57517;43.562;19.540;2023-07-29T12:57:09;8.73;;;4.50;;
70150;SDS011;57517;43.562;19.540;2023-07-29T12:59:35;11.32;;;6.30;;
70150;SDS011;57517;43.562;19.540;2023-07-29T13:02:00;14.77;;;8.38;;
70150;SDS011;57517;43.562;19.540;2023-07-29T13:04:26;16.27;;;9.23;;
70150;SDS011;57517;43.562;19.540;2023-07-29T13:06:52;7.50;;;5.65;;
70150;SDS011;57517;43.562;19.540;2023-07-29T13:09:17;7.97;;;5.75;;
70150;SDS011;57517;43.562;19.540;2023-07-29T13:11:43;7.95;;;4.78;;
70150;SDS011;57517;43.562;19.540;2023-07-29T13:14:09;8.93;;;5.65;;
70150;SDS011;57517;43.562;19.540;2023-07-29T13:16:35;7.93;;;4.68;;
70150;SDS011;57517;43.562;19.540;2023-07-29T13:19:01;10.30;;;6.47;;
70150;SDS011;57517;43.562;19.540;2023-07-29T13:21:26;13.52;;;8.50;;
70150;SDS011;57517;43.562;19.540;2023-07-29T13:23:52;9.63;;;6.45;;
70150;SDS011;57517;43.562;19.540;2023-07-29T13:26:18;7.38;;;4.50;;
70150;SDS011;57517;43.562;19.540;2023-07-29T13:28:44;8.07;;;5.70;;
70150;SDS011;57517;43.562;19.540;2023-07-29T13:31:10;7.30;;;4.75;;
70150;SDS011;57517;43.562;19.540;2023-07-29T13:33:35;7.15;;;5.55;;
70150;SDS011;57517;43.562;19.540;2023-07-29T13:36:02;7.65;;;4.47;;
70150;SDS011;57517;43.562;19.540;2023-07-29T13:38:28;8.32;;;5.90;;
70150;SDS011;57517;43.562;19.540;2023-07-29T13:40:54;6.95;;;4.55;;
70150;SDS011;57517;43.562;19.540;2023-07-29T13:43:20;5.55;;;4.00;;
70150;SDS011;57517;43.562;19.540;2023-07-29T13:45:46;7.80;;;5.45;;
70150;SDS011;57517;43.562;19.540;2023-07-29T13:48:13;12.23;;;8.73;;
70150;SDS011;57517;43.562;19.540;2023-07-29T13:50:39;8.43;;;6.07;;
70150;SDS011;57517;43.562;19.540;2023-07-29T13:53:06;7.47;;;5.43;;
70150;SDS011;57517;43.562;19.540;2023-07-29T13:55:32;11.38;;;8.05;;
70150;SDS011;57517;43.562;19.540;2023-07-29T13:57:57;11.52;;;6.93;;
70150;SDS011;57517;43.562;19.540;2023-07-29T14:00:23;7.32;;;4.80;;
70150;SDS011;57517;43.562;19.540;2023-07-29T14:02:49;6.93;;;4.97;;
70150;SDS011;57517;43.562;19.540;2023-07-29T14:05:15;8.80;;;5.80;;
70150;SDS011;57517;43.562;19.540;2023-07-29T14:07:41;5.38;;;4.13;;
70150;SDS011;57517;43.562;19.540;2023-07-29T14:10:06;6.20;;;4.07;;
70150;SDS011;57517;43.562;19.540;2023-07-29T14:12:32;5.95;;;4.57;;
70150;SDS011;57517;43.562;19.540;2023-07-29T14:14:58;7.15;;;5.07;;
70150;SDS011;57517;43.562;19.540;2023-07-29T14:17:24;7.90;;;5.28;;
70150;SDS011;57517;43.562;19.540;2023-07-29T14:19:50;9.43;;;5.68;;
70150;SDS011;57517;43.562;19.540;2023-07-29T14:22:16;7.57;;;5.60;;
70150;SDS011;57517;43.562;19.540;2023-07-29T14:24:41;10.18;;;7.43;;
70150;SDS011;57517;43.562;19.540;2023-07-29T14:27:07;7.82;;;5.32;;
70150;SDS011;57517;43.562;19.540;2023-07-29T14:29:33;7.85;;;5.60;;
70150;SDS011;57517;43.562;19.540;2023-07-29T14:31:59;7.63;;;5.25;;
70150;SDS011;57517;43.562;19.540;2023-07-29T14:34:24;11.27;;;7.10;;
70150;SDS011;57517;43.562;19.540;2023-07-29T14:36:50;9.30;;;7.40;;
70150;SDS011;57517;43.562;19.540;2023-07-29T14:39:16;6.03;;;4.90;;
70150;SDS011;57517;43.562;19.540;2023-07-29T14:41:42;10.15;;;7.70;;
70150;SDS011;57517;43.562;19.540;2023-07-29T14:44:07;7.43;;;5.38;;
70150;SDS011;57517;43.562;19.540;2023-07-29T14:46:33;14.68;;;8.95;;
70150;SDS011;57517;43.562;19.540;2023-07-29T14:48:59;10.55;;;7.57;;
70150;SDS011;57517;43.562;19.540;2023-07-29T14:51:25;14.90;;;10.15;;